Celebrity Equinox — 9HXD9 — position and weather

sailwx.info

Track history (hours):
 
Tides and Currents Weather Stations Pressure Air Temp Water Temp Dewpoint Dewpoint Depression Visibility Wind Speed Wind Dir Waves Ship Positions

Celebrity Equinox

Last reported at 2014-Sep-30 20:32 UTC. Time now 2014-Oct-01 00:08 UTC.
Position N 43°22' E 009°06'.

Length 317 m; draft 8.6 m.

Type: Ship. MMSI: 249667000.

Date/timePositionNaut miles runAvg speedWind from/ knotsBaromVisibWave heightAir tempDewpointWater temp
2014-Sep-30 20:32N 43°22' E 009°06'1717.2
2014-Sep-30 19:33N 43°26' E 009°29'1717.1
2014-Sep-30 18:33N 43°30' E 009°51'1616.1
2014-Sep-30 17:34N 43°31' E 010°14'4 3.4
2014-Sep-30 16:31N 43°33' E 010°18'0 0.0
2014-Sep-30 15:34N 43°33' E 010°18'0 0.0
2014-Sep-30 14:33N 43°33' E 010°18'0 0.0
2014-Sep-30 13:30N 43°33' E 010°18'0 0.0
2014-Sep-30 12:32N 43°33' E 010°18'0 0.0
2014-Sep-30 11:29N 43°33' E 010°18'0 0.0
2014-Sep-30 10:31N 43°33' E 010°18'0 0.0
2014-Sep-30 09:31N 43°33' E 010°18'0 0.0
2014-Sep-30 08:34N 43°33' E 010°18'0 0.0
2014-Sep-30 07:33N 43°33' E 010°18'0 0.0
2014-Sep-30 06:30N 43°33' E 010°18'0 0.0
2014-Sep-30 05:32N 43°33' E 010°18'0 0.2
2014-Sep-30 04:34N 43°33' E 010°17'1212.0
2014-Sep-30 03:33N 43°22' E 010°11'1919.0
2014-Sep-30 02:33N 43°04' E 010°05'1612.3
2014-Sep-30 01:18N 42°48' E 010°01'2111.9
2014-Sep-29 23:29N 42°33' E 010°21'1111.9
2014-Sep-29 22:33N 42°26' E 010°33'  
2014-Sep-22 01:11N 38°25' E 013°41'1117.1
2014-Sep-22 00:33N 38°26' E 013°27'1717.0
2014-Sep-21 23:34N 38°28' E 013°06'1717.0
2014-Sep-21 22:34N 38°28' E 012°44'1717.1
2014-Sep-21 21:33N 38°29' E 012°22'8617.1
2014-Sep-21 16:33N 38°38' E 010°33'1717.2
2014-Sep-21 15:33N 38°40' E 010°11'1717.3
2014-Sep-21 14:34N 38°42' E 009°49'1717.3
2014-Sep-21 13:33N 38°44' E 009°27'1717.3
2014-Sep-21 12:33N 38°45' E 009°05'2417.1
2014-Sep-21 11:08N 38°47' E 008°34'1217.3
2014-Sep-21 10:25N 38°48' E 008°18'1916.9
2014-Sep-21 09:18N 38°52' E 007°55'1517.2
2014-Sep-21 08:26N 38°59' E 007°38'1516.9
2014-Sep-21 07:33N 39°06' E 007°21'1717.0
2014-Sep-21 06:33N 39°14' E 007°01'3617.1
2014-Sep-21 04:28N 39°32' E 006°21'1617.2
2014-Sep-21 03:33N 39°39' E 006°03'5524.7
2014-Sep-21 01:19N 40°06' E 005°00'3 2.8
2014-Sep-21 00:09N 40°08' E 004°56'1017.0
2014-Sep-20 23:33N 40°13' E 004°45'1717.1
2014-Sep-20 22:33N 40°21' E 004°25'1717.1
2014-Sep-20 21:33N 40°29' E 004°06'1717.1
2014-Sep-20 20:33N 40°37' E 003°46'  
Track history (hours):
 
Tides and Currents Weather Stations Pressure Air Temp Water Temp Dewpoint Dewpoint Depression Visibility Wind Speed Wind Dir Waves Ship Positions

Celebrity Equinox

Last reported at 2014-Sep-30 20:32 UTC. Time now 2014-Oct-01 00:08 UTC.
Position N 43°22' E 009°06'.

Length 317 m; draft 8.6 m.

Type: Ship. MMSI: 249667000.

Date/timePositionNaut miles runAvg speedWind from/ knotsBaromVisibWave heightAir tempDewpointWater temp
2014-Sep-30 20:32N 43°22' E 009°06'1717.2
2014-Sep-30 19:33N 43°26' E 009°29'1717.1
2014-Sep-30 18:33N 43°30' E 009°51'1616.1
2014-Sep-30 17:34N 43°31' E 010°14'4 3.4
2014-Sep-30 16:31N 43°33' E 010°18'0 0.0
2014-Sep-30 15:34N 43°33' E 010°18'0 0.0
2014-Sep-30 14:33N 43°33' E 010°18'0 0.0
2014-Sep-30 13:30N 43°33' E 010°18'0 0.0
2014-Sep-30 12:32N 43°33' E 010°18'0 0.0
2014-Sep-30 11:29N 43°33' E 010°18'0 0.0
2014-Sep-30 10:31N 43°33' E 010°18'0 0.0
2014-Sep-30 09:31N 43°33' E 010°18'0 0.0
2014-Sep-30 08:34N 43°33' E 010°18'0 0.0
2014-Sep-30 07:33N 43°33' E 010°18'0 0.0
2014-Sep-30 06:30N 43°33' E 010°18'0 0.0
2014-Sep-30 05:32N 43°33' E 010°18'0 0.2
2014-Sep-30 04:34N 43°33' E 010°17'1212.0
2014-Sep-30 03:33N 43°22' E 010°11'1919.0
2014-Sep-30 02:33N 43°04' E 010°05'1612.3
2014-Sep-30 01:18N 42°48' E 010°01'2111.9
2014-Sep-29 23:29N 42°33' E 010°21'1111.9
2014-Sep-29 22:33N 42°26' E 010°33'  
2014-Sep-22 01:11N 38°25' E 013°41'1117.1
2014-Sep-22 00:33N 38°26' E 013°27'1717.0
2014-Sep-21 23:34N 38°28' E 013°06'1717.0
2014-Sep-21 22:34N 38°28' E 012°44'1717.1
2014-Sep-21 21:33N 38°29' E 012°22'8617.1
2014-Sep-21 16:33N 38°38' E 010°33'1717.2
2014-Sep-21 15:33N 38°40' E 010°11'1717.3
2014-Sep-21 14:34N 38°42' E 009°49'1717.3
2014-Sep-21 13:33N 38°44' E 009°27'1717.3
2014-Sep-21 12:33N 38°45' E 009°05'2417.1
2014-Sep-21 11:08N 38°47' E 008°34'1217.3
2014-Sep-21 10:25N 38°48' E 008°18'1916.9
2014-Sep-21 09:18N 38°52' E 007°55'1517.2
2014-Sep-21 08:26N 38°59' E 007°38'1516.9
2014-Sep-21 07:33N 39°06' E 007°21'1717.0
2014-Sep-21 06:33N 39°14' E 007°01'3617.1
2014-Sep-21 04:28N 39°32' E 006°21'1617.2
2014-Sep-21 03:33N 39°39' E 006°03'5524.7
2014-Sep-21 01:19N 40°06' E 005°00'3 2.8
2014-Sep-21 00:09N 40°08' E 004°56'1017.0
2014-Sep-20 23:33N 40°13' E 004°45'1717.1
2014-Sep-20 22:33N 40°21' E 004°25'1717.1
2014-Sep-20 21:33N 40°29' E 004°06'1717.1
2014-Sep-20 20:33N 40°37' E 003°46'  

Dump ship's entire track history